• Join FlightAware (Why Join?)
  • Login
  • US Flag 
03:05PM EDT


 

Airport Tracker/Info


-or-


 

Live Flight TrackerFlight Track Log ✈ FLG4222 ✈ 23-Sep-2013 ✈ KBGM - KDTW

Flight Track Log - Related Links

Times and Time Zones

All times are in EDT time to prevent confusion due to time zone crossing. See the FLG4222 flight status page for this flight to view local times or setup timezone preferences in your user account.

Time Position Orientation Groundspeed Altitude Reporting Facility
EDT Latitude Longitude Course Direction KTS MPH feet Rate Location/Type
11:49AM 42.2797 -76.1631 293° West 218 251 7,000  Level New York Center
11:50AM 42.3514 -76.1886 345° North 223 257 8,000 960 Climbing New York Center
11:51AM 42.4186 -76.2222 340° North 229 264 9,000 1,260 Climbing New York Center
11:53AM 42.4681 -76.4347 288° West 312 359 12,000 1,500 Climbing Cleveland Center
11:54AM 42.4956 -76.5550 287° West 331 381 13,800 1,740 Climbing Cleveland Center
11:55AM 42.5206 -76.6733 286° West 329 379 15,700 1,560 Climbing Cleveland Center
11:56AM 42.5475 -76.7944 287° West 334 384 17,000 1,020 Climbing Cleveland Center
11:57AM 42.5733 -76.9203 286° West 344 396 17,800 1,080 Climbing Cleveland Center
11:58AM 42.6075 -77.0764 287° West 359 413 19,300 1,200 Climbing Cleveland Center
11:59AM 42.6200 -77.2131 277° West 369 425 20,300 900 Climbing Cleveland Center
12:00PM 42.6289 -77.3517 275° West 370 426 21,200 780 Climbing Cleveland Center
12:01PM 42.6378 -77.4981 275° West 375 432 21,900 660 Climbing Cleveland Center
12:02PM 42.6456 -77.6414 274° West 379 436 22,600 540 Climbing Cleveland Center
12:03PM 42.6542 -77.7911 275° West 393 452 23,100 540 Climbing Cleveland Center
12:04PM 42.6636 -77.9528 275° West 401 461 23,800 660 Climbing Cleveland Center
12:06PM 42.6714 -78.1036 274° West 401 461 24,500 540 Climbing Cleveland Center
12:07PM 42.6794 -78.2558 274° West 405 466 25,000 480 Climbing Cleveland Center
12:08PM 42.6889 -78.4389 274° West 405 466 25,600 480 Climbing Cleveland Center
12:09PM 42.6972 -78.5947 274° West 414 476 26,000 180 Climbing Cleveland Center
12:10PM 42.7042 -78.7511 274° West 415 478 26,000  Level Cleveland Center
12:11PM 42.7114 -78.9064 274° West 411 473 26,000  Level Cleveland Center
12:12PM 42.7197 -79.0639 274° West 416 479 26,000  Level Cleveland Center
12:13PM 42.7258 -79.2206 273° West 416 479 26,000  Level Cleveland Center
12:14PM 42.7336 -79.4100 273° West 419 482 26,000  Level Cleveland Center
12:15PM 42.7400 -79.5681 273° West 420 483 26,000  Level Cleveland Center
12:16PM 42.7458 -79.7278 273° West 422 486 26,000  Level Cleveland Center
12:17PM 42.7497 -79.8881 272° West 425 489 26,000  Level Cleveland Center
12:18PM 42.7408 -80.0731 266° West 435 501 26,000  Level Cleveland Center
12:19PM 42.7342 -80.2344 267° West 429 494 26,000  Level Cleveland Center
12:20PM 42.7269 -80.3992 267° West 433 498 26,000  Level Cleveland Center
12:21PM 42.7200 -80.5619 267° West 431 496 26,000 -540 Level Cleveland Center
12:22PM 42.7125 -80.7311 267° West 443 510 25,000 -1,020 Descending Cleveland Center
12:23PM 42.7058 -80.8975 267° West 442 509 24,000 -540 Descending Cleveland Center
12:24PM 42.6858 -81.0569 260° West 429 494 24,000  Level Cleveland Center
12:25PM 42.6653 -81.2411 261° West 422 486 24,000  Level Cleveland Center
12:26PM 42.6472 -81.3983 261° West 420 483 24,000  Level Cleveland Center
12:27PM 42.6283 -81.5561 261° West 420 483 24,000 -660 Level Cleveland Center
12:28PM 42.6097 -81.7139 261° West 421 484 22,700 -1,800 Descending Cleveland Center
12:29PM 42.5892 -81.8797 260° West 414 476 20,400 -2,220 Descending Cleveland Center
12:30PM 42.5722 -82.0311 261° West 409 471 18,200 -2,040 Descending Cleveland Center
12:31PM 42.5550 -82.1739 261° West 391 450 16,300 -2,040 Descending Cleveland Center
12:32PM 42.5350 -82.3378 261° West 366 421 13,900 -1,980 Descending Cleveland Center
12:33PM 42.5203 -82.4422 259° West 365 420 12,300 -1,260 Descending Cleveland Center
12:34PM 42.5083 -82.5408 261° West 356 410 12,000 -300 Descending Cleveland Center
12:34PM 42.4881 -82.5956 243° Southwest 363 418 12,000 60 Level Cleveland Center
12:35PM 42.4689 -82.6547 246° West 364 419 12,100  Climbing Cleveland Center
12:36PM 42.4447 -82.7206 244° Southwest 364 419 12,000  Descending Cleveland Center
12:36PM 42.4186 -82.7978 245° Southwest 372 428 12,100  Climbing Cleveland Center
12:37PM 42.3992 -82.8469 242° Southwest 371 427 12,000 -720 Descending Cleveland Center
12:37PM 42.3739 -82.9247 246° West 368 423 11,400 -900 Descending Cleveland Center
12:38PM 42.3556 -82.9681 240° Southwest 366 421 11,100 -420 Descending Cleveland Center
12:38PM 42.3344 -83.0294 245° Southwest 283 326 11,000 -120 Descending Cleveland Center
12:39PM 42.3219 -83.0614 242° Southwest 288 331 11,000 60 Level Cleveland Center
12:39PM 42.3050 -83.1158 247° West 226 260 11,100  Climbing Cleveland Center
12:40PM 42.2936 -83.1392 237° Southwest 240 276 11,000  Descending Cleveland Center
12:40PM 42.2606 -83.1772 220° Southwest 236 272 11,100 60 Climbing Cleveland Center
12:41PM 42.2406 -83.1875 201° Southwest 235 270 11,100 -600 Level Cleveland Center
12:41PM 42.2008 -83.2169 209° Southwest 240 276 10,500 -1,200 Descending Cleveland Center
12:42PM 42.1717 -83.2350 205° Southwest 240 276 9,900 -1,320 Descending Cleveland Center
12:42PM 42.1414 -83.2567 208° Southwest 237 273 9,200 -1,380 Descending Cleveland Center
12:43PM 42.1119 -83.2736 203° Southwest 236 272 8,500 -1,440 Descending Cleveland Center
12:43PM 42.0881 -83.2942 213° Southwest 234 269 7,900 -1,380 Descending Cleveland Center
12:44PM 42.0536 -83.3139 203° Southwest 234 269 7,100 -1,260 Descending Cleveland Center
12:44PM 42.0283 -83.3336 210° Southwest 236 272 6,600 -1,020 Descending Cleveland Center
12:45PM 41.9964 -83.3547 206° Southwest 231 266 6,100 -1,140 Descending Cleveland Center
12:45PM 41.9706 -83.3761 212° Southwest 223 257 5,500 -1,260 Descending Cleveland Center
12:46PM 41.9406 -83.3967 207° Southwest 222 255 4,800 -1,080 Descending Cleveland Center
12:46PM 41.9150 -83.4161 210° Southwest 209 241 4,300 -780 Descending Cleveland Center
12:47PM 41.8917 -83.4311 206° Southwest 208 239 4,000 -300 Descending Cleveland Center
12:47PM 41.8753 -83.4439 210° Southwest 186 214 4,100 60 Climbing Cleveland Center
12:48PM 41.8669 -83.4792 252° West 183 211 4,100  Level Cleveland Center
12:48PM 41.8781 -83.5144 293° West 181 208 4,100  Level Cleveland Center
12:49PM 41.9031 -83.5342 330° Northwest 195 224 4,100  Level Cleveland Center
12:49PM 41.9203 -83.5347 359° North 179 206 4,100  Level Cleveland Center
12:50PM 41.9633 -83.5211 13° North 178 205 4,100 -60 Level Cleveland Center
12:51PM 41.9961 -83.4958 30° Northeast 180 207 4,000  Descending Cleveland Center
12:51PM 42.0081 -83.4881 26° Northeast 180 207 4,100  Climbing Cleveland Center
12:52PM 42.0397 -83.4636 30° Northeast 180 207 4,000 -120 Descending Cleveland Center
12:52PM 42.0478 -83.4600 18° North 178 205 4,000 -720 Level Cleveland Center
12:53PM 42.0836 -83.4322 30° Northeast 180 207 3,300 -1,020 Descending Cleveland Center
12:53PM 42.1014 -83.4200 27° Northeast 173 199 2,800 -1,080 Descending Cleveland Center
12:54PM 42.1325 -83.3975 28° Northeast 172 198 2,200 -900 Descending Cleveland Center
12:54PM 42.1389 -83.3942 21° North 140 161 1,900 -720 Descending Cleveland Center
12:55PM 42.1644 -83.3728 32° Northeast 148 170 1,500 -720 Descending Cleveland Center
12:55PM 42.1744 -83.3683 18° North 138 159 1,200 -600 Descending Cleveland Center
12:56PM 42.2011 -83.3453 33° Northeast 142 163 900 -360 Descending Cleveland Center